Hauptseite
METAR-TAF:

METAR-TAF

Flughäfen :

Nouméa / La Tontouta, Neukaledonien

Flughafen La Tontouta

Breite: 22-01S, Länge: 166-13E, Höhe: 16 m

Beobachtung

Neuester Wetterbericht von vor 25 Minuten, um 05:30 UTC
Wind 7 kt aus Süd/Südost
Temperatur 25°C
Luftfeuchtigkeit 65%
Luftdruck 1016 hPa
Sichtweite 10 km oder mehr
Leicht bewölkt in der Höhe von 4600 ft

METAR: NWWW 290530Z AUTO 15007KT 9999 FEW046 25/18 Q1016 NOSIG

Zeit: 16:55 (05:55 UTC)

Prognose

Neuester Wetterbericht von vor 55 Minuten, um 05:00 UTC
Gültige Prognose vom 29 um 06 UTC bis 30 um 06 UTC
Wind 10 kt aus Südost
Sichtweite 10 km oder mehr
Leicht bewölkt in der Höhe von 4500 ft
Übergehend zu
vom 29 um 06 UTC bis 29 um 08 UTC
Wind 2 kt aus unterschiedlichen Richtungen
Übergehend zu
vom 29 um 22 UTC bis 29 um 24 UTC
Wind 10 kt aus Süd/Südost

TAF: NWWW 290500Z 2906/3006 14010KT 9999 FEW045 BECMG 2906/2908 VRB02KT BECMG 2922/2924 15010KT

Wetterbeobachtungen und Prognosen von mehr als 4000 Flughäfen (METAR und TAF Bericht).

Die verfügbaren Stationen werden durch gelbe und rote Markierungen auf der Karte dargestellt.

Führen Sie die Maus auf sie, um den Namen der Station zu sehen.

Darauf klicken, um die Beobachtung von Wetterbeobachtungen und Prognosen zu sehen.

Um die Karte zu ändern : klicken Sie auf den grünen Tasten mit einem schwarzen Kreuz Zum Vergrößern, auf den grünen Button mit einem Gedankenstrich zu verkleinern, oder auf die grünen Pfeile für benachbarte Karten.


METAR-TAF: